createdAt,value
2018-07-13T00:02:27.076Z,18.10
2018-07-13T00:04:54.617Z,18.20
2018-07-13T00:07:22.135Z,18.20
2018-07-13T00:09:49.686Z,18.10
2018-07-13T00:12:17.194Z,18.00
2018-07-13T00:14:50.241Z,18.10
2018-07-13T00:17:17.752Z,18.00
2018-07-13T00:19:45.316Z,18.00
2018-07-13T00:22:12.867Z,17.90
2018-07-13T00:24:40.412Z,17.90
2018-07-13T00:27:08.029Z,17.90
2018-07-13T00:29:35.554Z,17.80
2018-07-13T00:32:03.096Z,17.80
2018-07-13T00:34:30.636Z,17.90
2018-07-13T00:36:58.161Z,17.90
2018-07-13T00:39:25.735Z,17.90
2018-07-13T00:41:53.306Z,17.90
2018-07-13T00:44:20.813Z,17.90
2018-07-13T00:46:48.381Z,17.90
2018-07-13T00:49:15.889Z,18.00
2018-07-13T00:51:43.449Z,17.90
2018-07-13T00:54:11.016Z,17.90
2018-07-13T00:56:38.584Z,17.90
2018-07-13T00:59:06.113Z,17.80
2018-07-13T01:01:33.646Z,17.80
2018-07-13T01:04:01.182Z,17.80
2018-07-13T01:06:28.741Z,17.80
2018-07-13T01:08:56.421Z,17.80
2018-07-13T01:11:23.941Z,17.80
2018-07-13T01:13:51.852Z,17.80
2018-07-13T01:16:19.491Z,17.80
2018-07-13T01:18:47.083Z,17.80
2018-07-13T01:21:14.601Z,17.80
2018-07-13T01:23:42.204Z,17.80
2018-07-13T01:26:09.741Z,17.80
2018-07-13T01:28:37.301Z,17.80
2018-07-13T01:31:04.814Z,17.80
2018-07-13T01:33:32.329Z,17.70
2018-07-13T01:35:59.901Z,17.70
2018-07-13T01:38:27.455Z,17.70
2018-07-13T01:40:55.053Z,17.70
2018-07-13T01:43:22.572Z,17.70
2018-07-13T01:45:50.076Z,17.70
2018-07-13T01:48:17.599Z,17.70
2018-07-13T01:50:45.137Z,17.60
2018-07-13T01:53:12.745Z,17.60
2018-07-13T01:55:40.296Z,17.60
2018-07-13T01:58:07.768Z,17.60
2018-07-13T02:00:35.308Z,17.50
2018-07-13T02:03:02.893Z,17.50
2018-07-13T02:05:30.392Z,17.50
2018-07-13T02:07:58.005Z,17.40
2018-07-13T02:10:25.552Z,17.40
2018-07-13T02:12:53.117Z,17.40
2018-07-13T02:15:20.721Z,17.40
2018-07-13T02:17:48.278Z,17.40
2018-07-13T02:20:15.878Z,17.40
2018-07-13T02:22:43.380Z,17.30
2018-07-13T02:25:10.909Z,17.30
2018-07-13T02:27:38.449Z,17.20
2018-07-13T02:30:05.966Z,17.20
2018-07-13T02:32:33.566Z,17.30
2018-07-13T02:35:01.137Z,17.30
2018-07-13T02:37:28.733Z,17.30
2018-07-13T02:39:56.205Z,17.30
2018-07-13T02:42:23.761Z,17.30
2018-07-13T02:44:51.306Z,17.30
2018-07-13T02:47:18.806Z,17.30
2018-07-13T02:49:46.377Z,17.30
2018-07-13T02:52:13.916Z,17.40
2018-07-13T02:54:41.405Z,17.30
2018-07-13T02:57:08.962Z,17.30
2018-07-13T02:59:36.490Z,17.30
2018-07-13T03:02:04.046Z,17.30
2018-07-13T03:04:31.574Z,17.30
2018-07-13T03:06:59.093Z,17.30
2018-07-13T03:09:26.686Z,17.30
2018-07-13T03:11:54.262Z,17.20
2018-07-13T03:14:21.813Z,17.30
2018-07-13T03:16:49.385Z,17.20
2018-07-13T03:19:17.333Z,17.20
2018-07-13T04:40:45.602Z,16.80
2018-07-13T04:43:18.644Z,16.80
2018-07-13T04:45:46.249Z,16.70
2018-07-13T04:48:14.881Z,16.80
2018-07-13T04:50:42.494Z,16.80
2018-07-13T04:53:10.195Z,16.80
2018-07-13T04:55:37.861Z,16.90
2018-07-13T04:58:08.834Z,16.90
2018-07-13T05:00:36.648Z,16.90
2018-07-13T05:03:04.190Z,16.90
2018-07-13T05:05:31.782Z,16.90
2018-07-13T05:08:16.172Z,16.90
2018-07-13T05:10:43.807Z,16.90
2018-07-13T05:13:11.456Z,17.00
2018-07-13T05:15:39.061Z,17.10
2018-07-13T05:18:06.669Z,17.30
2018-07-13T05:23:20.791Z,17.50
2018-07-13T05:25:48.470Z,17.60
2018-07-13T05:28:19.958Z,17.60
2018-07-13T05:30:47.729Z,17.80
2018-07-13T05:33:16.054Z,17.90
2018-07-13T05:35:43.723Z,18.00
2018-07-13T05:38:12.720Z,18.20
2018-07-13T05:40:40.299Z,18.10
2018-07-13T05:43:24.057Z,18.20
2018-07-13T05:45:51.736Z,18.40
2018-07-13T05:48:19.388Z,18.50
2018-07-13T05:50:46.970Z,18.60
2018-07-13T05:53:14.636Z,18.80
2018-07-13T05:55:42.293Z,18.90
2018-07-13T05:58:09.996Z,19.00
2018-07-13T06:00:37.673Z,19.20
2018-07-13T06:03:05.349Z,19.30
2018-07-13T06:05:33.510Z,19.50
2018-07-13T06:08:01.149Z,19.60
2018-07-13T06:10:28.708Z,19.70
2018-07-13T06:12:56.352Z,19.70
2018-07-13T06:15:23.964Z,19.70
2018-07-13T06:17:51.626Z,19.80
2018-07-13T06:20:19.322Z,20.00
2018-07-13T06:22:46.849Z,20.10
2018-07-13T06:25:14.485Z,20.20
2018-07-13T06:27:42.188Z,20.30
2018-07-13T06:30:09.820Z,20.40
2018-07-13T06:32:37.417Z,20.50
2018-07-13T06:35:05.064Z,20.60
2018-07-13T06:37:32.729Z,20.80
2018-07-13T06:40:00.302Z,20.90
2018-07-13T06:42:27.984Z,21.10
2018-07-13T06:44:55.729Z,21.20
2018-07-13T06:47:23.277Z,21.20
2018-07-13T06:49:50.903Z,21.30
2018-07-13T06:52:18.526Z,21.40
2018-07-13T06:54:46.147Z,21.60
2018-07-13T06:57:20.104Z,21.90
2018-07-13T06:59:47.713Z,22.00
2018-07-13T07:02:20.817Z,22.20
2018-07-13T07:04:48.586Z,22.50
2018-07-13T07:07:17.430Z,22.80
2018-07-13T07:09:45.398Z,23.00
2018-07-13T07:12:19.501Z,22.80
2018-07-13T07:14:47.153Z,22.60
2018-07-13T07:17:15.151Z,22.60
2018-07-13T07:19:42.839Z,22.70
2018-07-13T07:22:10.726Z,22.90
2018-07-13T07:24:39.256Z,23.00
2018-07-13T07:27:06.854Z,23.10
2018-07-13T07:29:34.449Z,23.30
2018-07-13T07:32:02.237Z,23.40
2018-07-13T07:34:29.794Z,23.40
2018-07-13T07:36:57.403Z,23.30
2018-07-13T07:39:25.122Z,23.50
2018-07-13T07:41:52.653Z,23.60
2018-07-13T07:44:20.309Z,23.50
2018-07-13T07:46:48.397Z,23.60
2018-07-13T07:49:15.969Z,23.70
2018-07-13T07:51:43.628Z,23.80
2018-07-13T07:54:11.199Z,23.80
2018-07-13T07:56:38.789Z,24.00
2018-07-13T07:59:06.391Z,24.00
2018-07-13T08:01:34.062Z,24.10
2018-07-13T08:04:01.649Z,24.40
2018-07-13T08:06:29.367Z,24.60
2018-07-13T08:08:56.921Z,24.90
2018-07-13T08:11:24.496Z,25.00
2018-07-13T08:13:52.458Z,25.10
2018-07-13T08:16:19.923Z,25.20
2018-07-13T08:18:47.530Z,25.00
2018-07-13T08:21:15.169Z,25.30
2018-07-13T08:23:42.855Z,25.40
2018-07-13T08:26:10.878Z,25.50
2018-07-13T08:28:38.711Z,25.60
2018-07-13T08:31:06.305Z,25.70
2018-07-13T08:33:33.849Z,25.80
2018-07-13T08:36:01.739Z,25.40
2018-07-13T08:38:29.361Z,25.50
2018-07-13T08:40:56.937Z,25.30
2018-07-13T08:43:24.612Z,25.50
2018-07-13T08:45:52.275Z,25.90
2018-07-13T08:48:19.833Z,26.00
2018-07-13T08:50:47.417Z,26.30
2018-07-13T08:53:14.974Z,26.20
2018-07-13T08:55:42.481Z,26.40
2018-07-13T08:58:10.118Z,26.20
2018-07-13T09:00:37.713Z,26.40
2018-07-13T09:03:05.524Z,26.40
2018-07-13T09:05:33.144Z,26.60
2018-07-13T09:08:00.801Z,26.80
2018-07-13T09:10:28.396Z,26.90
2018-07-13T09:12:56.003Z,27.00
2018-07-13T09:15:23.583Z,27.20
2018-07-13T09:17:51.197Z,27.10
2018-07-13T09:20:18.752Z,27.50
2018-07-13T09:22:46.349Z,27.20
2018-07-13T09:25:13.941Z,26.80
2018-07-13T09:27:41.709Z,26.40
2018-07-13T09:30:10.308Z,25.90
2018-07-13T09:32:37.917Z,25.80
2018-07-13T09:35:05.565Z,25.90
2018-07-13T09:37:33.514Z,26.20
2018-07-13T09:40:01.126Z,26.40
2018-07-13T09:42:28.719Z,26.80
2018-07-13T09:44:56.324Z,26.70
2018-07-13T09:47:24.123Z,26.40
2018-07-13T09:49:51.886Z,26.50
2018-07-13T09:52:19.465Z,26.80
2018-07-13T09:54:47.049Z,27.10
2018-07-13T09:57:14.666Z,27.30
2018-07-13T09:59:42.415Z,27.70
2018-07-13T10:02:09.992Z,27.80
2018-07-13T10:04:37.829Z,28.10
2018-07-13T10:07:05.790Z,28.40
2018-07-13T10:09:33.364Z,28.70
2018-07-13T10:12:00.916Z,28.90
2018-07-13T10:14:28.484Z,28.70
2018-07-13T10:16:56.061Z,28.50
2018-07-13T10:19:23.586Z,28.50
2018-07-13T10:21:51.042Z,28.90
2018-07-13T10:24:19.475Z,29.00
2018-07-13T10:26:46.917Z,29.00
2018-07-13T10:29:17.387Z,29.30
2018-07-13T10:31:44.884Z,29.30
2018-07-13T10:34:12.340Z,29.30
2018-07-13T10:36:47.413Z,28.80
2018-07-13T10:39:14.940Z,28.30
2018-07-13T10:41:42.421Z,28.10
2018-07-13T10:44:09.946Z,28.30
2018-07-13T10:46:37.543Z,28.40
2018-07-13T10:49:05.184Z,28.50
2018-07-13T10:51:32.958Z,28.70
2018-07-13T10:54:00.526Z,28.90
2018-07-13T10:56:28.211Z,28.70
2018-07-13T11:01:46.598Z,28.90
2018-07-13T11:04:14.543Z,29.00
2018-07-13T11:06:42.845Z,29.20
2018-07-13T11:09:11.078Z,28.80
2018-07-13T11:11:38.853Z,28.70
2018-07-13T11:14:06.560Z,28.30
2018-07-13T11:16:35.205Z,28.90
2018-07-13T11:19:02.913Z,29.30
2018-07-13T11:21:30.589Z,29.60
2018-07-13T11:23:58.331Z,29.70
2018-07-13T11:26:26.176Z,30.00
2018-07-13T11:28:53.916Z,30.00
2018-07-13T11:31:21.681Z,30.10
2018-07-13T11:33:49.331Z,29.90
2018-07-13T11:36:16.998Z,29.60
2018-07-13T11:38:44.702Z,29.50
2018-07-13T11:41:12.398Z,29.20
2018-07-13T11:43:40.032Z,28.60
2018-07-13T11:46:07.634Z,28.60
2018-07-13T11:48:35.709Z,28.40
2018-07-13T11:51:03.399Z,28.40
2018-07-13T11:53:31.076Z,28.20
2018-07-13T11:55:58.675Z,28.00
2018-07-13T11:58:26.378Z,28.20
2018-07-13T12:00:53.984Z,28.50
2018-07-13T12:03:21.638Z,28.50
2018-07-13T12:05:49.238Z,28.30
2018-07-13T12:08:17.285Z,28.80
2018-07-13T12:10:44.940Z,29.20
2018-07-13T12:13:13.284Z,29.60
2018-07-13T12:15:42.031Z,29.70
2018-07-13T12:18:09.609Z,30.00
2018-07-13T12:20:37.326Z,30.20
2018-07-13T12:23:05.033Z,30.20
2018-07-13T12:25:32.701Z,30.00
2018-07-13T12:28:00.412Z,30.20
2018-07-13T12:30:28.072Z,30.20
2018-07-13T12:32:55.746Z,30.30
2018-07-13T12:35:23.375Z,30.30
2018-07-13T12:37:51.783Z,30.60
2018-07-13T12:40:23.090Z,30.70
2018-07-13T12:42:50.844Z,30.70
2018-07-13T12:45:18.545Z,30.80
2018-07-13T12:47:46.193Z,30.80
2018-07-13T12:50:13.839Z,30.00
2018-07-13T12:52:41.624Z,30.40
2018-07-13T12:55:09.278Z,30.60
2018-07-13T12:57:36.994Z,30.60
2018-07-13T13:00:06.201Z,30.80
2018-07-13T13:02:33.911Z,30.70
2018-07-13T13:05:01.611Z,30.60
2018-07-13T13:07:29.236Z,30.40
2018-07-13T13:09:56.885Z,30.20
2018-07-13T13:12:24.460Z,30.10
2018-07-13T13:14:52.105Z,30.20
2018-07-13T13:17:19.674Z,30.30
2018-07-13T13:19:47.382Z,30.40
2018-07-13T13:22:15.017Z,30.70
2018-07-13T13:24:42.643Z,30.70
2018-07-13T13:27:10.239Z,30.90
2018-07-13T13:29:37.877Z,31.10
2018-07-13T13:32:05.624Z,31.30
2018-07-13T13:34:33.272Z,31.30
2018-07-13T13:37:00.957Z,31.10
2018-07-13T13:39:28.562Z,30.80
2018-07-13T13:41:56.229Z,30.40
2018-07-13T13:44:23.886Z,30.10
2018-07-13T13:46:51.509Z,30.00
2018-07-13T13:49:19.146Z,29.90
2018-07-13T13:51:46.771Z,29.90
2018-07-13T13:54:14.565Z,29.90
2018-07-13T13:56:42.457Z,30.00
2018-07-13T13:59:10.078Z,29.90
2018-07-13T14:01:37.652Z,29.50
2018-07-13T14:04:05.419Z,29.40
2018-07-13T14:06:33.040Z,29.40
2018-07-13T14:09:00.777Z,29.20
2018-07-13T14:11:28.509Z,29.20
2018-07-13T14:13:56.112Z,29.30
2018-07-13T14:16:23.781Z,29.00
2018-07-13T14:18:52.800Z,29.30
2018-07-13T14:21:20.463Z,29.40
2018-07-13T14:23:48.073Z,29.60
2018-07-13T14:26:15.650Z,29.60
2018-07-13T14:28:43.269Z,29.70
2018-07-13T14:31:10.874Z,29.80
2018-07-13T14:33:38.582Z,29.90
2018-07-13T14:36:06.201Z,30.00
2018-07-13T14:38:33.922Z,30.00
2018-07-13T14:41:01.614Z,30.00
2018-07-13T14:43:29.279Z,29.90
2018-07-13T14:45:56.905Z,29.70
2018-07-13T14:48:24.517Z,29.60
2018-07-13T14:50:52.256Z,29.40
2018-07-13T14:53:19.990Z,29.20
2018-07-13T14:55:47.569Z,29.00
2018-07-13T14:58:15.199Z,28.90
2018-07-13T15:00:42.857Z,28.70
2018-07-13T15:03:10.500Z,28.60
2018-07-13T15:05:38.108Z,28.60
2018-07-13T15:08:05.784Z,28.50
2018-07-13T15:10:33.523Z,28.40
2018-07-13T15:13:01.111Z,28.30
2018-07-13T15:15:28.783Z,28.20
2018-07-13T15:17:56.497Z,28.20
2018-07-13T15:20:24.097Z,28.20
2018-07-13T15:22:51.692Z,28.20
2018-07-13T15:25:19.459Z,28.20
2018-07-13T15:27:47.136Z,28.20
2018-07-13T15:30:14.784Z,28.10
2018-07-13T15:32:42.497Z,28.00
2018-07-13T15:35:10.370Z,28.10
2018-07-13T15:37:38.049Z,28.00
2018-07-13T15:40:05.673Z,28.10
2018-07-13T15:42:33.358Z,28.20
2018-07-13T15:45:01.005Z,28.30
2018-07-13T15:47:29.024Z,28.40
2018-07-13T15:49:56.655Z,28.50
2018-07-13T15:52:24.335Z,28.60
2018-07-13T15:54:51.984Z,28.60
2018-07-13T15:57:19.646Z,28.60
2018-07-13T15:59:47.287Z,28.70
2018-07-13T16:02:14.965Z,28.60
2018-07-13T16:04:42.578Z,28.50
2018-07-13T16:07:10.220Z,28.50
2018-07-13T16:09:37.848Z,28.30
2018-07-13T16:12:05.520Z,28.20
2018-07-13T16:14:33.119Z,28.10
2018-07-13T16:17:00.721Z,28.00
2018-07-13T16:19:28.185Z,27.90
2018-07-13T16:21:55.616Z,27.80
2018-07-13T16:24:23.056Z,27.80
2018-07-13T16:26:50.508Z,27.60
2018-07-13T16:29:17.944Z,27.60
2018-07-13T16:31:45.418Z,27.60
2018-07-13T16:34:12.908Z,27.60
2018-07-13T16:36:40.477Z,27.70
2018-07-13T16:39:08.198Z,27.70
2018-07-13T16:41:36.753Z,27.70
2018-07-13T16:44:04.383Z,27.80
2018-07-13T16:46:32.014Z,27.80
2018-07-13T16:48:59.787Z,27.80
2018-07-13T16:51:27.433Z,27.80
2018-07-13T16:53:55.031Z,27.80
2018-07-13T16:56:22.843Z,27.70
2018-07-13T16:58:50.340Z,27.60
2018-07-13T17:01:17.930Z,27.60
2018-07-13T17:03:45.551Z,27.60
2018-07-13T17:06:13.102Z,27.60
2018-07-13T17:08:40.787Z,27.50
2018-07-13T17:11:08.303Z,27.40
2018-07-13T17:13:35.881Z,27.40
2018-07-13T17:16:03.385Z,27.40
2018-07-13T17:18:30.918Z,27.30
2018-07-13T17:20:58.437Z,27.20
2018-07-13T17:23:26.005Z,27.00
2018-07-13T17:25:53.595Z,26.90
2018-07-13T17:28:21.185Z,26.90
2018-07-13T17:30:48.769Z,26.80
2018-07-13T17:33:16.353Z,26.70
2018-07-13T17:35:43.897Z,26.70
2018-07-13T17:38:11.445Z,26.50
2018-07-13T17:40:39.041Z,26.50
2018-07-13T17:43:06.718Z,26.40
2018-07-13T17:45:34.177Z,26.40
2018-07-13T17:48:02.198Z,26.40
2018-07-13T17:50:29.785Z,26.40
2018-07-13T17:52:57.285Z,26.30
2018-07-13T17:55:24.835Z,26.30
2018-07-13T17:57:52.389Z,26.20
2018-07-13T18:00:19.937Z,26.20
2018-07-13T18:02:47.528Z,26.20
2018-07-13T18:05:15.160Z,26.20
2018-07-13T18:07:42.718Z,26.20
2018-07-13T18:10:10.251Z,26.20
2018-07-13T18:12:37.891Z,26.10
2018-07-13T18:15:05.590Z,26.10
2018-07-13T18:17:33.043Z,26.00
2018-07-13T18:20:00.583Z,25.90
2018-07-13T18:22:28.214Z,25.80
2018-07-13T18:24:55.803Z,25.70
2018-07-13T18:27:23.374Z,25.70
2018-07-13T18:29:51.019Z,25.70
2018-07-13T18:32:18.614Z,25.60
2018-07-13T18:34:46.219Z,25.50
2018-07-13T18:37:13.776Z,25.50
2018-07-13T18:39:41.280Z,25.50
2018-07-13T18:42:08.830Z,25.40
2018-07-13T18:44:36.390Z,25.30
2018-07-13T18:47:03.973Z,25.20
2018-07-13T18:49:31.588Z,25.10
2018-07-13T18:51:59.126Z,25.10
2018-07-13T18:54:26.752Z,25.00
2018-07-13T18:56:54.447Z,24.80
2018-07-13T18:59:22.110Z,24.80
2018-07-13T19:01:49.697Z,24.70
2018-07-13T19:04:17.309Z,24.70
2018-07-13T19:06:44.839Z,24.70
2018-07-13T19:09:12.411Z,24.70
2018-07-13T19:11:39.955Z,24.60
2018-07-13T19:14:07.616Z,24.70
2018-07-13T19:16:35.163Z,24.60
2018-07-13T19:19:02.750Z,24.50
2018-07-13T19:21:30.286Z,24.50
2018-07-13T19:23:57.894Z,24.40
2018-07-13T19:26:25.452Z,24.40
2018-07-13T19:28:53.028Z,24.40
2018-07-13T19:31:20.524Z,24.20
2018-07-13T19:33:48.142Z,24.20
2018-07-13T19:36:15.835Z,24.10
2018-07-13T19:38:43.366Z,24.00
2018-07-13T19:41:10.937Z,24.00
2018-07-13T19:43:38.523Z,23.90
2018-07-13T19:46:06.085Z,23.80
2018-07-13T19:48:33.617Z,23.80
2018-07-13T19:51:01.216Z,23.70
2018-07-13T19:53:28.833Z,23.70
2018-07-13T19:55:56.406Z,23.60
2018-07-13T19:58:24.009Z,23.50
2018-07-13T20:00:51.561Z,23.30
2018-07-13T20:03:19.330Z,23.30
2018-07-13T20:05:46.998Z,23.10
2018-07-13T20:08:14.631Z,22.90
2018-07-13T20:10:42.201Z,22.70
2018-07-13T20:13:09.773Z,22.50
2018-07-13T20:15:37.351Z,22.40
2018-07-13T20:18:04.905Z,22.40
2018-07-13T20:20:32.518Z,22.30
2018-07-13T20:23:00.105Z,22.20
2018-07-13T20:25:27.789Z,22.10
2018-07-13T20:27:55.338Z,22.00
2018-07-13T20:30:22.906Z,21.90
2018-07-13T20:32:50.456Z,21.90
2018-07-13T20:35:18.082Z,21.80
2018-07-13T20:37:45.639Z,21.60
2018-07-13T20:40:13.182Z,21.60
2018-07-13T20:42:40.782Z,21.50
2018-07-13T20:45:08.436Z,21.50
2018-07-13T20:47:36.041Z,21.60
2018-07-13T20:50:03.629Z,21.40
2018-07-13T20:52:31.285Z,21.30
2018-07-13T20:54:58.798Z,21.20
2018-07-13T20:57:26.436Z,21.20
2018-07-13T20:59:54.070Z,21.10
2018-07-13T21:02:21.639Z,21.10
2018-07-13T21:04:49.307Z,21.20
2018-07-13T21:07:16.860Z,21.10
2018-07-13T21:09:44.449Z,21.00
2018-07-13T21:12:12.074Z,20.90
2018-07-13T21:14:39.649Z,21.00
2018-07-13T21:17:07.220Z,20.90
2018-07-13T21:19:34.835Z,21.00
2018-07-13T21:22:02.442Z,21.00
2018-07-13T21:24:30.260Z,21.00
2018-07-13T21:26:58.009Z,20.90
2018-07-13T21:29:25.541Z,20.90
2018-07-13T21:31:53.668Z,21.00
2018-07-13T21:34:21.380Z,21.00
2018-07-13T21:36:48.936Z,20.90
2018-07-13T21:39:17.442Z,21.00
2018-07-13T21:41:45.740Z,21.00
2018-07-13T21:44:15.134Z,21.00
2018-07-13T21:46:46.159Z,21.00
2018-07-13T21:49:14.567Z,20.90
2018-07-13T21:51:42.131Z,20.80
2018-07-13T21:54:09.701Z,20.70
2018-07-13T21:56:37.275Z,20.60
2018-07-13T21:59:04.826Z,20.70
2018-07-13T22:01:32.451Z,20.60
2018-07-13T22:04:00.196Z,20.60
2018-07-13T22:06:27.833Z,20.70
2018-07-13T22:08:55.356Z,20.60
2018-07-13T22:11:23.297Z,20.60
2018-07-13T22:13:50.950Z,20.60
2018-07-13T22:16:18.514Z,20.60
2018-07-13T22:18:46.093Z,20.60
2018-07-13T22:21:13.698Z,20.70
2018-07-13T22:23:41.301Z,20.70
2018-07-13T22:26:08.851Z,20.70
2018-07-13T22:28:36.386Z,20.60
2018-07-13T22:31:03.994Z,20.60
2018-07-13T22:33:31.564Z,20.60
2018-07-13T22:35:59.132Z,20.60
2018-07-13T22:38:26.781Z,20.60
2018-07-13T22:40:54.335Z,20.50
2018-07-13T22:43:21.933Z,20.40
2018-07-13T22:45:49.534Z,20.30
2018-07-13T22:48:17.177Z,20.30
2018-07-13T22:50:44.762Z,20.40
2018-07-13T22:53:12.288Z,20.30
2018-07-13T22:55:39.811Z,20.40
2018-07-13T22:58:07.349Z,20.30
2018-07-13T23:00:34.933Z,20.30
2018-07-13T23:03:02.480Z,20.20
2018-07-13T23:05:30.041Z,20.20
2018-07-13T23:07:57.561Z,20.20
2018-07-13T23:10:25.168Z,20.20
2018-07-13T23:12:52.721Z,20.10
2018-07-13T23:15:20.313Z,20.10
2018-07-13T23:17:47.898Z,20.10
2018-07-13T23:20:15.464Z,20.00
2018-07-13T23:22:43.080Z,20.00
2018-07-13T23:25:10.642Z,20.00
2018-07-13T23:27:38.192Z,20.10
2018-07-13T23:30:05.763Z,20.10
2018-07-13T23:32:33.563Z,20.20
2018-07-13T23:35:01.182Z,20.20
2018-07-13T23:37:28.807Z,20.20
2018-07-13T23:39:56.448Z,20.20
2018-07-13T23:42:24.057Z,20.20
2018-07-13T23:44:51.655Z,20.10
2018-07-13T23:47:19.299Z,20.00
2018-07-13T23:49:46.859Z,19.90
2018-07-13T23:52:14.484Z,19.80
2018-07-13T23:54:42.061Z,19.90
2018-07-13T23:57:09.654Z,19.80
2018-07-13T23:59:37.152Z,19.70
